createdAt,value
2016-04-27T00:00:26.357Z,15.35
2016-04-27T00:01:26.343Z,15.39
2016-04-27T00:02:26.330Z,15.39
2016-04-27T00:03:26.302Z,15.61
2016-04-27T00:04:26.290Z,15.47
2016-04-27T00:05:26.260Z,15.51
2016-04-27T00:06:26.029Z,15.46
2016-04-27T00:07:26.234Z,15.49
2016-04-27T00:08:26.222Z,15.54
2016-04-27T00:09:26.209Z,15.64
2016-04-27T00:10:26.180Z,15.58
2016-04-27T00:11:26.183Z,15.7
2016-04-27T00:12:26.154Z,15.68
2016-04-27T00:13:26.142Z,15.61
2016-04-27T00:14:26.128Z,15.49
2016-04-27T00:15:26.131Z,15.33
2016-04-27T00:16:26.102Z,15.49
2016-04-27T00:17:26.089Z,15.57
2016-04-27T00:18:26.045Z,15.54
2016-04-27T00:19:26.047Z,15.58
2016-04-27T00:20:26.020Z,15.52
2016-04-27T00:21:26.006Z,15.59
2016-04-27T00:22:27.947Z,15.31
2016-04-27T00:23:25.966Z,15.52
2016-04-27T00:24:25.968Z,15.28
2016-04-27T00:25:25.939Z,15.14
2016-04-27T00:26:25.910Z,15.28
2016-04-27T00:27:25.897Z,15.24
2016-04-27T00:28:25.900Z,15.44
2016-04-27T00:29:25.872Z,15.39
2016-04-27T00:30:25.874Z,15.55
2016-04-27T00:31:25.846Z,15.47
2016-04-27T00:32:25.849Z,15.54
2016-04-27T00:33:25.805Z,15.4
2016-04-27T00:34:25.791Z,15.46
2016-04-27T00:35:25.779Z,15.51
2016-04-27T00:36:26.859Z,15.42
2016-04-27T00:37:25.737Z,15.59
2016-04-27T00:38:25.724Z,15.39
2016-04-27T00:39:25.742Z,15.27
2016-04-27T00:40:26.243Z,15.19
2016-04-27T00:41:25.683Z,15.33
2016-04-27T00:42:25.682Z,15.42
2016-04-27T00:43:25.674Z,15.42
2016-04-27T00:44:26.270Z,15.37
2016-04-27T00:45:25.699Z,15.33
2016-04-27T00:46:25.577Z,15.47
2016-04-27T00:47:25.579Z,15.54
2016-04-27T00:48:25.551Z,15.61
2016-04-27T00:49:31.101Z,15.33
2016-04-27T00:50:25.510Z,15.44
2016-04-27T00:51:26.247Z,15.52
2016-04-27T00:52:25.468Z,15.54
2016-04-27T00:53:25.470Z,15.43
2016-04-27T00:54:25.457Z,15.43
2016-04-27T00:55:25.429Z,15.39
2016-04-27T00:56:25.417Z,15.42
2016-04-27T00:57:25.403Z,15.46
2016-04-27T00:58:25.390Z,15.4
2016-04-27T00:59:25.362Z,15.36
2016-04-27T01:00:25.349Z,15.4
2016-04-27T01:01:25.320Z,15.54
2016-04-27T01:02:25.323Z,15.51
2016-04-27T01:03:25.294Z,15.58
2016-04-27T01:04:25.282Z,15.61
2016-04-27T01:05:25.268Z,15.37
2016-04-27T01:06:25.616Z,15.51
2016-04-27T01:07:25.227Z,15.55
2016-04-27T01:08:25.229Z,15.33
2016-04-27T01:09:25.202Z,15.46
2016-04-27T01:10:25.188Z,15.39
2016-04-27T01:11:25.159Z,15.37
2016-04-27T01:12:25.131Z,15.35
2016-04-27T01:13:25.134Z,15.54
2016-04-27T01:14:25.121Z,15.51
2016-04-27T01:15:25.107Z,15.58
2016-04-27T01:16:25.079Z,15.59
2016-04-27T01:17:25.067Z,15.64
2016-04-27T01:18:25.069Z,15.31
2016-04-27T01:19:25.040Z,15.46
2016-04-27T01:20:25.043Z,15.36
2016-04-27T01:21:24.998Z,15.33
2016-04-27T01:22:25.007Z,15.43
2016-04-27T01:23:27.652Z,15.39
2016-04-27T01:24:24.952Z,15.39
2016-04-27T01:25:24.939Z,15.37
2016-04-27T01:26:24.927Z,15.39
2016-04-27T01:27:24.913Z,15.42
2016-04-27T01:28:24.885Z,15.33
2016-04-27T01:29:24.856Z,15.37
2016-04-27T01:30:24.844Z,15.57
2016-04-27T01:31:24.830Z,15.51
2016-04-27T01:32:24.833Z,15.37
2016-04-27T01:33:24.789Z,15.39
2016-04-27T01:34:24.777Z,15.44
2016-04-27T01:35:24.763Z,15.54
2016-04-27T01:36:24.891Z,15.52
2016-04-27T01:37:24.722Z,15.54
2016-04-27T01:38:24.724Z,15.28
2016-04-27T01:39:24.712Z,15.24
2016-04-27T01:40:24.682Z,15.43
2016-04-27T01:41:24.670Z,15.35
2016-04-27T01:42:24.657Z,15.44
2016-04-27T01:43:24.487Z,15.47
2016-04-27T01:44:24.615Z,15.37
2016-04-27T01:45:24.618Z,15.37
2016-04-27T01:46:24.574Z,15.4
2016-04-27T01:47:24.561Z,15.43
2016-04-27T01:48:24.548Z,15.61
2016-04-27T01:49:24.520Z,15.58
2016-04-27T01:50:24.508Z,15.61
2016-04-27T01:51:25.135Z,15.36
2016-04-27T01:52:24.482Z,15.4
2016-04-27T01:53:24.454Z,15.43
2016-04-27T01:54:24.456Z,15.39
2016-04-27T01:55:24.426Z,15.4
2016-04-27T01:56:24.430Z,15.37
2016-04-27T01:57:24.401Z,15.27
2016-04-27T01:58:24.373Z,15.18
2016-04-27T01:59:24.375Z,15.4
2016-04-27T02:00:24.347Z,15.37
2016-04-27T02:01:24.334Z,15.4
2016-04-27T02:02:24.321Z,15.31
2016-04-27T02:03:24.292Z,15.4
2016-04-27T02:04:24.295Z,15.49
2016-04-27T02:05:24.267Z,15.37
2016-04-27T02:06:25.254Z,15.42
2016-04-27T02:07:24.225Z,15.36
2016-04-27T02:08:24.212Z,15.39
2016-04-27T02:09:24.200Z,15.37
2016-04-27T02:10:24.172Z,15.37
2016-04-27T02:11:24.158Z,15.33
2016-04-27T02:12:24.160Z,15.4
2016-04-27T02:13:24.960Z,15.64
2016-04-27T02:14:24.119Z,15.46
2016-04-27T02:15:24.090Z,15.43
2016-04-27T02:16:24.077Z,15.33
2016-04-27T02:17:24.065Z,15.62
2016-04-27T02:18:24.052Z,15.39
2016-04-27T02:19:24.038Z,15.35
2016-04-27T02:20:24.026Z,15.47
2016-04-27T02:21:23.841Z,15.55
2016-04-27T02:22:23.985Z,15.59
2016-04-27T02:23:23.956Z,15.39
2016-04-27T02:24:23.943Z,15.55
2016-04-27T02:25:23.930Z,15.44
2016-04-27T02:26:23.902Z,15.43
2016-04-27T02:27:23.887Z,15.57
2016-04-27T02:28:23.906Z,15.44
2016-04-27T02:29:23.863Z,15.39
2016-04-27T02:30:23.850Z,15.47
2016-04-27T02:31:23.836Z,15.42
2016-04-27T02:32:23.808Z,15.35
2016-04-27T02:33:23.795Z,15.46
2016-04-27T02:34:23.782Z,15.35
2016-04-27T02:35:23.769Z,15.51
2016-04-27T02:36:26.913Z,15.47
2016-04-27T02:37:23.727Z,15.54
2016-04-27T02:38:23.715Z,15.46
2016-04-27T02:39:23.702Z,15.29
2016-04-27T02:40:23.689Z,15.31
2016-04-27T02:41:23.661Z,15.37
2016-04-27T02:42:23.655Z,15.62
2016-04-27T02:43:23.699Z,15.46
2016-04-27T02:44:23.712Z,15.52
2016-04-27T02:45:23.742Z,15.36
2016-04-27T02:46:23.739Z,15.35
2016-04-27T02:47:23.763Z,15.39
2016-04-27T02:48:23.766Z,15.39
2016-04-27T02:49:23.784Z,15.35
2016-04-27T02:50:23.772Z,15.35
2016-04-27T02:51:24.539Z,15.4
2016-04-27T02:52:23.758Z,15.39
2016-04-27T02:53:23.736Z,15.39
2016-04-27T02:54:23.758Z,15.25
2016-04-27T02:55:23.767Z,15.28
2016-04-27T02:56:23.712Z,15.22
2016-04-27T02:57:23.704Z,15.35
2016-04-27T02:58:24.099Z,15.22
2016-04-27T02:59:23.667Z,15.17
2016-04-27T03:00:23.656Z,15.21
2016-04-27T03:01:23.644Z,15.39
2016-04-27T03:02:23.634Z,15.36
2016-04-27T03:03:23.621Z,15.36
2016-04-27T03:04:23.609Z,15.31
2016-04-27T03:05:23.581Z,15.36
2016-04-27T03:06:23.585Z,15.17
2016-04-27T03:07:23.791Z,15.09
2016-04-27T03:08:23.529Z,15.17
2016-04-27T03:09:23.517Z,15.24
2016-04-27T03:10:23.503Z,15.29
2016-04-27T03:11:23.491Z,15.44
2016-04-27T03:12:23.463Z,15.43
2016-04-27T03:13:23.420Z,15.39
2016-04-27T03:14:23.453Z,15.22
2016-04-27T03:15:23.408Z,15.21
2016-04-27T03:16:23.395Z,15.28
2016-04-27T03:17:23.398Z,15.36
2016-04-27T03:18:23.385Z,15.35
2016-04-27T03:19:23.356Z,15.22
2016-04-27T03:20:23.328Z,15.37
2016-04-27T03:21:23.191Z,15.31
2016-04-27T03:22:23.208Z,15.39
2016-04-27T03:23:23.274Z,15.39
2016-04-27T03:24:23.277Z,15.24
2016-04-27T03:25:23.264Z,15.21
2016-04-27T03:26:23.235Z,14.99
2016-04-27T03:27:23.221Z,15.1
2016-04-27T03:28:23.241Z,15.11
2016-04-27T03:29:23.196Z,15.1
2016-04-27T03:30:23.168Z,15.04
2016-04-27T03:31:23.155Z,15.11
2016-04-27T03:32:23.141Z,15.18
2016-04-27T03:33:23.129Z,15.24
2016-04-27T03:34:23.101Z,15.17
2016-04-27T03:35:23.071Z,15.03
2016-04-27T03:36:22.793Z,14.99
2016-04-27T03:37:23.374Z,15.11
2016-04-27T03:38:23.048Z,15.03
2016-04-27T03:39:23.020Z,14.91
2016-04-27T03:40:22.992Z,14.82
2016-04-27T03:41:22.994Z,15.04
2016-04-27T03:42:22.965Z,15.02
2016-04-27T03:43:23.578Z,14.94
2016-04-27T03:44:22.939Z,15.11
2016-04-27T03:45:22.911Z,15.22
2016-04-27T03:46:22.914Z,15
2016-04-27T03:47:22.886Z,15.07
2016-04-27T03:48:22.872Z,15.14
2016-04-27T03:49:22.859Z,15
2016-04-27T03:50:22.830Z,15.03
2016-04-27T03:51:23.225Z,14.94
2016-04-27T03:52:22.758Z,14.89
2016-04-27T03:53:22.777Z,14.89
2016-04-27T03:54:22.764Z,15
2016-04-27T03:55:22.766Z,14.97
2016-04-27T03:56:22.738Z,15.02
2016-04-27T03:57:22.708Z,15.1
2016-04-27T03:58:22.711Z,14.81
2016-04-27T03:59:22.699Z,14.88
2016-04-27T04:00:22.670Z,14.82
2016-04-27T04:01:22.641Z,14.94
2016-04-27T04:02:22.629Z,14.96
2016-04-27T04:03:22.616Z,15.06
2016-04-27T04:04:22.587Z,15.04
2016-04-27T04:05:22.575Z,15.14
2016-04-27T04:06:22.702Z,15.19
2016-04-27T04:07:22.565Z,15.21
2016-04-27T04:08:22.521Z,15.09
2016-04-27T04:09:22.489Z,14.99
2016-04-27T04:10:22.492Z,15.03
2016-04-27T04:11:22.463Z,14.85
2016-04-27T04:12:22.452Z,15.14
2016-04-27T04:13:22.422Z,14.94
2016-04-27T04:14:22.127Z,15.03
2016-04-27T04:15:22.412Z,15.04
2016-04-27T04:16:22.383Z,14.86
2016-04-27T04:17:22.370Z,15.1
2016-04-27T04:18:22.343Z,14.91
2016-04-27T04:19:22.329Z,14.97
2016-04-27T04:20:22.348Z,15.07
2016-04-27T04:21:22.444Z,15.03
2016-04-27T04:22:22.263Z,15.03
2016-04-27T04:23:22.281Z,14.96
2016-04-27T04:24:22.252Z,15.02
2016-04-27T04:25:22.239Z,15.03
2016-04-27T04:26:22.210Z,15.09
2016-04-27T04:27:22.214Z,15.19
2016-04-27T04:28:22.169Z,15.31
2016-04-27T04:29:22.188Z,15.33
2016-04-27T04:30:22.144Z,15.11
2016-04-27T04:31:22.131Z,15.04
2016-04-27T04:32:22.118Z,14.92
2016-04-27T04:33:22.090Z,15.02
2016-04-27T04:34:22.076Z,15.06
2016-04-27T04:35:22.079Z,14.85
2016-04-27T04:36:22.143Z,15.04
2016-04-27T04:37:22.365Z,15.02
2016-04-27T04:38:22.009Z,14.82
2016-04-27T04:39:21.981Z,14.92
2016-04-27T04:40:21.983Z,14.68
2016-04-27T04:41:21.954Z,14.86
2016-04-27T04:42:21.942Z,14.65
2016-04-27T04:43:21.928Z,14.85
2016-04-27T04:44:21.901Z,14.91
2016-04-27T04:45:21.887Z,14.68
2016-04-27T04:46:21.875Z,14.92
2016-04-27T04:47:21.861Z,14.5
2016-04-27T04:48:21.833Z,14.54
2016-04-27T04:49:21.820Z,14.43
2016-04-27T04:50:21.791Z,14.63
2016-04-27T04:51:21.794Z,14.72
2016-04-27T04:52:21.781Z,14.73
2016-04-27T04:53:21.752Z,14.66
2016-04-27T04:54:21.725Z,14.69
2016-04-27T04:55:21.727Z,14.66
2016-04-27T04:56:24.338Z,14.66
2016-04-27T04:57:21.685Z,14.86
2016-04-27T04:58:21.672Z,14.6
2016-04-27T04:59:21.659Z,14.66
2016-04-27T05:00:21.630Z,14.68
2016-04-27T05:01:21.603Z,14.88
2016-04-27T05:02:21.699Z,14.86
2016-04-27T05:03:21.577Z,14.85
2016-04-27T05:04:21.563Z,14.65
2016-04-27T05:05:21.551Z,14.65
2016-04-27T05:06:21.538Z,14.68
2016-04-27T05:07:21.509Z,14.6
2016-04-27T05:08:21.496Z,14.5
2016-04-27T05:09:21.482Z,14.63
2016-04-27T05:10:21.454Z,14.82
2016-04-27T05:11:21.457Z,14.88
2016-04-27T05:12:21.445Z,14.88
2016-04-27T05:13:21.401Z,14.68
2016-04-27T05:14:21.403Z,14.69
2016-04-27T05:15:21.374Z,14.47
2016-04-27T05:16:21.673Z,14.45
2016-04-27T05:17:21.333Z,14.65
2016-04-27T05:18:21.335Z,14.73
2016-04-27T05:19:21.306Z,14.65
2016-04-27T05:20:21.278Z,14.65
2016-04-27T05:21:21.265Z,14.65
2016-04-27T05:22:21.253Z,14.55
2016-04-27T05:23:21.239Z,14.73
2016-04-27T05:24:21.227Z,14.55
2016-04-27T05:25:21.213Z,14.6
2016-04-27T05:26:21.185Z,14.66
2016-04-27T05:27:21.172Z,14.86
2016-04-27T05:28:21.158Z,14.86
2016-04-27T05:29:21.131Z,14.79
2016-04-27T05:30:21.102Z,14.72
2016-04-27T05:31:21.089Z,14.6
2016-04-27T05:32:20.936Z,14.65
2016-04-27T05:33:21.063Z,14.62
2016-04-27T05:34:21.050Z,14.62
2016-04-27T05:35:21.037Z,14.59
2016-04-27T05:36:21.024Z,14.68
2016-04-27T05:37:21.824Z,14.72
2016-04-27T05:38:20.968Z,14.84
2016-04-27T05:39:20.970Z,14.73
2016-04-27T05:40:20.957Z,14.85
2016-04-27T05:41:20.929Z,14.92
2016-04-27T05:42:20.900Z,15.04
2016-04-27T05:43:20.887Z,14.94
2016-04-27T05:44:20.873Z,14.94
2016-04-27T05:45:20.861Z,14.84
2016-04-27T05:46:20.832Z,14.84
2016-04-27T05:47:20.835Z,15.06
2016-04-27T05:48:20.807Z,15.06
2016-04-27T05:49:20.794Z,15.1
2016-04-27T05:50:20.750Z,15
2016-04-27T05:51:20.752Z,15.02
2016-04-27T05:52:20.927Z,14.81
2016-04-27T05:53:20.726Z,14.79
2016-04-27T05:54:20.698Z,14.88
2016-04-27T05:55:20.685Z,14.88
2016-04-27T05:56:20.656Z,14.81
2016-04-27T05:57:20.659Z,14.88
2016-04-27T05:58:20.631Z,15.04
2016-04-27T05:59:20.617Z,14.82
2016-04-27T06:00:20.605Z,14.92
2016-04-27T06:01:20.576Z,15.02
2016-04-27T06:02:20.563Z,14.85
2016-04-27T06:03:20.394Z,14.79
2016-04-27T06:04:20.538Z,14.96
2016-04-27T06:05:20.524Z,14.99
2016-04-27T06:06:20.496Z,14.99
2016-04-27T06:07:20.326Z,14.82
2016-04-27T06:08:20.454Z,14.81
2016-04-27T06:09:20.457Z,14.85
2016-04-27T06:10:20.443Z,15.06
2016-04-27T06:11:20.416Z,14.94
2016-04-27T06:12:20.402Z,14.88
2016-04-27T06:13:20.374Z,15
2016-04-27T06:14:20.362Z,15.06
2016-04-27T06:15:20.348Z,15.18
2016-04-27T06:16:20.320Z,14.92
2016-04-27T06:17:20.306Z,15
2016-04-27T06:18:20.278Z,15.17
2016-04-27T06:19:20.281Z,15.17
2016-04-27T06:20:20.095Z,15.1
2016-04-27T06:21:20.256Z,15.07
2016-04-27T06:22:20.679Z,15.19
2016-04-27T06:23:20.198Z,15.07
2016-04-27T06:24:20.201Z,15.09
2016-04-27T06:25:20.172Z,14.92
2016-04-27T06:26:20.159Z,15.19
2016-04-27T06:27:20.130Z,15.19
2016-04-27T06:28:20.117Z,15.33
2016-04-27T06:29:20.089Z,15.03
2016-04-27T06:30:20.075Z,15.1
2016-04-27T06:31:20.063Z,15.36
2016-04-27T06:32:20.050Z,15.21
2016-04-27T06:33:20.037Z,15.39
2016-04-27T06:34:20.008Z,15.29
2016-04-27T06:35:19.996Z,15.19
2016-04-27T06:36:19.982Z,15.29
2016-04-27T06:37:19.891Z,15.43
2016-04-27T06:38:19.956Z,15.54
2016-04-27T06:39:19.929Z,15.27
2016-04-27T06:40:19.899Z,15.27
2016-04-27T06:41:19.902Z,15.35
2016-04-27T06:42:19.890Z,15.37
2016-04-27T06:43:19.860Z,15.28
2016-04-27T06:44:19.848Z,15.18
2016-04-27T06:45:19.835Z,14.79
2016-04-27T06:46:19.822Z,14.94
2016-04-27T06:47:19.793Z,15.19
2016-04-27T06:48:19.781Z,15.02
2016-04-27T06:49:19.768Z,15.07
2016-04-27T06:50:19.740Z,15.11
2016-04-27T06:51:19.726Z,15.37
2016-04-27T06:52:20.041Z,15.36
2016-04-27T06:53:19.701Z,15.11
2016-04-27T06:54:19.672Z,15.06
2016-04-27T06:55:19.675Z,15.03
2016-04-27T06:56:21.474Z,14.94
2016-04-27T06:57:19.617Z,15.07
2016-04-27T06:58:19.605Z,15.15
2016-04-27T06:59:19.576Z,14.97
2016-04-27T07:00:19.578Z,15.03
2016-04-27T07:01:19.550Z,15.03
2016-04-27T07:02:19.553Z,15.02
2016-04-27T07:03:19.524Z,15.09
2016-04-27T07:04:19.496Z,15.04
2016-04-27T07:05:19.513Z,15
2016-04-27T07:06:19.485Z,15.1
2016-04-27T07:07:19.754Z,15.11
2016-04-27T07:08:19.428Z,15.02
2016-04-27T07:09:19.416Z,14.94
2016-04-27T07:10:19.402Z,14.92
2016-04-27T07:11:19.390Z,15.03
2016-04-27T07:12:19.361Z,15.06
2016-04-27T07:13:19.348Z,15.1
2016-04-27T07:14:19.366Z,15.22
2016-04-27T07:15:19.321Z,15.09
2016-04-27T07:16:19.293Z,15.15
2016-04-27T07:17:19.296Z,15.22
2016-04-27T07:18:19.268Z,15.18
2016-04-27T07:19:19.240Z,15.36
2016-04-27T07:20:19.226Z,15.33
2016-04-27T07:21:19.213Z,15.22
2016-04-27T07:22:18.950Z,15.17
2016-04-27T07:23:20.781Z,15.27
2016-04-27T07:24:19.158Z,15.4
2016-04-27T07:25:19.146Z,15.36
2016-04-27T07:26:19.133Z,15.42
2016-04-27T07:27:19.103Z,15.57
2016-04-27T07:28:19.092Z,15.58
2016-04-27T07:29:19.109Z,15.57
2016-04-27T07:30:19.065Z,15.61
2016-04-27T07:31:19.037Z,15.73
2016-04-27T07:32:19.024Z,15.83
2016-04-27T07:33:19.027Z,15.98
2016-04-27T07:34:19.030Z,16.05
2016-04-27T07:35:18.969Z,15.57
2016-04-27T07:36:18.972Z,15.73
2016-04-27T07:37:18.850Z,15.77
2016-04-27T07:38:18.962Z,15.73
2016-04-27T07:39:18.918Z,15.7
2016-04-27T07:40:18.905Z,15.72
2016-04-27T07:41:18.876Z,15.75
2016-04-27T07:42:18.863Z,15.79
2016-04-27T07:43:18.851Z,15.72
2016-04-27T07:44:18.838Z,15.7
2016-04-27T07:45:18.809Z,15.65
2016-04-27T07:46:18.795Z,15.52
2016-04-27T07:47:18.877Z,15.65
2016-04-27T07:48:18.771Z,15.65
2016-04-27T07:49:18.742Z,15.83
2016-04-27T07:50:18.729Z,15.86
2016-04-27T07:51:18.700Z,15.58
2016-04-27T07:52:18.781Z,15.57
2016-04-27T07:53:19.534Z,15.49
2016-04-27T07:54:18.661Z,15.55
2016-04-27T07:55:18.633Z,15.58
2016-04-27T07:56:18.636Z,15.58
2016-04-27T07:57:18.622Z,15.57
2016-04-27T07:58:18.578Z,15.51
2016-04-27T07:59:18.564Z,15.49
2016-04-27T08:00:18.567Z,15.4
2016-04-27T08:01:18.539Z,15.44
2016-04-27T08:02:18.527Z,15.49
2016-04-27T08:03:18.498Z,15.43
2016-04-27T08:04:18.500Z,15.35
2016-04-27T08:05:18.472Z,15.54
2016-04-27T08:06:18.458Z,15.42
2016-04-27T08:07:19.197Z,15.36
2016-04-27T08:08:18.121Z,15.61
2016-04-27T08:09:19.311Z,15.61
2016-04-27T08:10:18.391Z,15.7
2016-04-27T08:11:18.379Z,15.84
2016-04-27T08:12:18.350Z,16.08
2016-04-27T08:13:18.399Z,16.08
2016-04-27T08:14:18.340Z,16.09
2016-04-27T08:15:18.312Z,16.16
2016-04-27T08:16:18.299Z,15.67
2016-04-27T08:17:18.285Z,15.95
2016-04-27T08:18:18.257Z,15.62
2016-04-27T08:19:18.243Z,15.73
2016-04-27T08:20:18.435Z,15.68
2016-04-27T08:21:18.218Z,15.95
2016-04-27T08:22:18.034Z,15.72
2016-04-27T08:23:17.880Z,16.01
2016-04-27T08:24:18.164Z,16.05
2016-04-27T08:25:18.135Z,16.24
2016-04-27T08:26:18.122Z,16.43
2016-04-27T08:27:18.125Z,16.36
2016-04-27T08:28:18.080Z,16.56
2016-04-27T08:29:18.084Z,16.65
2016-04-27T08:30:18.070Z,16.78
2016-04-27T08:31:18.073Z,16.78
2016-04-27T08:32:18.014Z,16.79
2016-04-27T08:33:18.013Z,16.78
2016-04-27T08:34:18.017Z,16.91
2016-04-27T08:35:18.003Z,16.84
2016-04-27T08:36:18.318Z,16.46
2016-04-27T08:37:18.728Z,16.31
2016-04-27T08:38:17.996Z,16.47
2016-04-27T08:39:17.905Z,16.6
2016-04-27T08:40:18.313Z,16.64
2016-04-27T08:41:17.879Z,16.94
2016-04-27T08:42:17.866Z,17.05
2016-04-27T08:43:17.852Z,17.05
2016-04-27T08:44:17.840Z,17.04
2016-04-27T08:45:17.810Z,16.96
2016-04-27T08:46:17.814Z,16.91
2016-04-27T08:47:17.785Z,16.99
2016-04-27T08:48:17.756Z,16.71
2016-04-27T08:49:17.760Z,16.43
2016-04-27T08:50:17.762Z,16.24
2016-04-27T08:51:17.718Z,16.68
2016-04-27T08:52:19.846Z,16.84
2016-04-27T08:53:17.707Z,16.87
2016-04-27T08:54:17.726Z,16.65
2016-04-27T08:55:17.666Z,17.01
2016-04-27T08:56:17.654Z,17.12
2016-04-27T08:57:17.625Z,17.01
2016-04-27T08:58:17.455Z,17.01
2016-04-27T08:59:17.599Z,17.01
2016-04-27T09:00:17.586Z,17.19
2016-04-27T09:01:17.558Z,17.27
2016-04-27T09:02:17.544Z,17.24
2016-04-27T09:03:17.531Z,17.36
2016-04-27T09:04:17.519Z,17.41
2016-04-27T09:05:17.522Z,17.24
2016-04-27T09:06:17.539Z,16.75
2016-04-27T09:07:17.824Z,16.93
2016-04-27T09:08:17.327Z,16.89
2016-04-27T09:09:17.438Z,17.02
2016-04-27T09:10:17.457Z,17.33
2016-04-27T09:11:17.428Z,16.96
2016-04-27T09:12:17.384Z,17.09
2016-04-27T09:13:17.371Z,16.9
2016-04-27T09:14:17.373Z,16.96
2016-04-27T09:15:17.360Z,17.16
2016-04-27T09:16:17.332Z,17.23
2016-04-27T09:17:17.304Z,17.15
2016-04-27T09:18:17.307Z,17.27
2016-04-27T09:19:17.277Z,17.45
2016-04-27T09:20:17.265Z,17.71
2016-04-27T09:21:17.268Z,17.83
2016-04-27T09:22:17.754Z,18.05
2016-04-27T09:23:19.913Z,17.98
2016-04-27T09:24:17.213Z,17.71
2016-04-27T09:25:17.184Z,17.56
2016-04-27T09:26:17.171Z,17.31
2016-04-27T09:27:17.455Z,17.15
2016-04-27T09:28:17.131Z,17.08
2016-04-27T09:29:17.133Z,17.3
2016-04-27T09:30:17.120Z,17.46
2016-04-27T09:31:17.091Z,17.51
2016-04-27T09:32:17.078Z,17.87
2016-04-27T09:33:17.065Z,17.9
2016-04-27T09:34:17.053Z,17.85
2016-04-27T09:35:17.289Z,17.39
2016-04-27T09:36:17.058Z,17.22
2016-04-27T09:37:17.842Z,17.14
2016-04-27T09:38:16.985Z,17.27
2016-04-27T09:39:16.972Z,17.3
2016-04-27T09:40:16.958Z,17.57
2016-04-27T09:41:16.962Z,17.82
2016-04-27T09:42:16.980Z,17.49
2016-04-27T09:43:16.936Z,17.68
2016-04-27T09:44:16.924Z,17.86
2016-04-27T09:45:17.160Z,18.13
2016-04-27T09:46:16.897Z,17.94
2016-04-27T09:47:16.853Z,18.03
2016-04-27T09:48:16.824Z,17.92
2016-04-27T09:49:17.312Z,18.18
2016-04-27T09:50:16.815Z,18.13
2016-04-27T09:51:16.786Z,18.31
2016-04-27T09:52:16.585Z,18.52
2016-04-27T09:53:16.791Z,18.49
2016-04-27T09:54:16.747Z,18.11
2016-04-27T09:55:16.718Z,18.11
2016-04-27T09:56:16.955Z,18.19
2016-04-27T09:57:16.787Z,18.05
2016-04-27T09:58:16.711Z,17.92
2016-04-27T09:59:16.604Z,18.04
2016-04-27T10:00:16.670Z,17.56
2016-04-27T10:01:16.640Z,17.74
2016-04-27T10:02:16.722Z,18.03
2016-04-27T10:03:19.756Z,18.04
2016-04-27T10:04:17.023Z,18.13
2016-04-27T10:05:16.589Z,17.92
2016-04-27T10:06:16.561Z,17.67
2016-04-27T10:07:16.595Z,18.05
2016-04-27T10:08:16.566Z,18.11
2016-04-27T10:09:16.521Z,18.08
2016-04-27T10:10:16.509Z,18.01
2016-04-27T10:11:16.496Z,18.08
2016-04-27T10:12:16.482Z,18.4
2016-04-27T10:13:16.455Z,18.5
2016-04-27T10:14:16.441Z,18.6
2016-04-27T10:15:16.444Z,18.65
2016-04-27T10:16:16.415Z,18.8
2016-04-27T10:17:16.747Z,18.9
2016-04-27T10:18:16.405Z,18.31
2016-04-27T10:19:16.377Z,18.59
2016-04-27T10:20:16.364Z,18.9
2016-04-27T10:21:16.382Z,18.98
2016-04-27T10:22:16.342Z,19.08
2016-04-27T10:23:16.186Z,18.78
2016-04-27T10:24:16.658Z,18.83
2016-04-27T10:25:16.347Z,19.02
2016-04-27T10:26:16.289Z,19.09
2016-04-27T10:27:16.275Z,18.73
2016-04-27T10:28:16.529Z,18.45
2016-04-27T10:29:16.391Z,18.29
2016-04-27T10:30:16.221Z,18.45
2016-04-27T10:31:16.224Z,18.74
2016-04-27T10:32:16.617Z,18.98
2016-04-27T10:33:16.542Z,19.39
2016-04-27T10:34:16.186Z,19.69
2016-04-27T10:35:16.157Z,19.96
2016-04-27T10:36:16.300Z,19.85
2016-04-27T10:37:16.272Z,20.04
2016-04-27T10:38:15.806Z,19.64
2016-04-27T10:39:16.105Z,19.96
2016-04-27T10:40:16.077Z,20.18
2016-04-27T10:41:16.094Z,19.85
2016-04-27T10:42:16.145Z,20.11
2016-04-27T10:43:16.116Z,20.39
2016-04-27T10:44:16.619Z,20.22
2016-04-27T10:45:16.746Z,20.34
2016-04-27T10:46:18.889Z,20.55
2016-04-27T10:47:15.971Z,20.62
2016-04-27T10:48:15.989Z,20.26
2016-04-27T10:49:15.991Z,20.44
2016-04-27T10:50:15.947Z,21.14
2016-04-27T10:51:15.935Z,20.09
2016-04-27T10:52:15.905Z,20.21
2016-04-27T10:53:16.112Z,20.09
2016-04-27T10:54:15.880Z,20.5
2016-04-27T10:55:15.883Z,20.41
2016-04-27T10:56:15.870Z,20.14
2016-04-27T10:57:15.856Z,20.66
2016-04-27T10:58:15.844Z,22.07
2016-04-27T10:59:15.815Z,23.78
2016-04-27T11:00:15.806Z,22.96
2016-04-27T11:01:15.808Z,24.17
2016-04-27T11:02:15.780Z,26.1
2016-04-27T11:03:15.783Z,25.26
2016-04-27T11:04:15.770Z,26.09
2016-04-27T11:05:15.758Z,25.78
2016-04-27T11:06:15.744Z,27.05
2016-04-27T11:07:15.746Z,26.45
2016-04-27T11:08:15.563Z,25.91
2016-04-27T11:09:15.752Z,26.66
2016-04-27T11:10:15.693Z,28.74
2016-04-27T11:11:15.696Z,28.81
2016-04-27T11:12:15.682Z,27.4
2016-04-27T11:13:15.669Z,27.21
2016-04-27T11:14:15.985Z,26.38
2016-04-27T11:15:17.784Z,25.83
2016-04-27T11:16:19.115Z,26.48
2016-04-27T11:17:16.914Z,27.05
2016-04-27T11:18:15.824Z,26.8
2016-04-27T11:19:16.404Z,25.65
2016-04-27T11:20:16.376Z,24.45
2016-04-27T11:21:16.112Z,27.54
2016-04-27T11:22:16.225Z,28.51
2016-04-27T11:23:19.400Z,26.59
2016-04-27T11:24:17.011Z,26.06
2016-04-27T11:25:16.748Z,26.88
2016-04-27T11:26:16.517Z,27.4
2016-04-27T11:27:17.175Z,26.85
2016-04-27T11:28:15.600Z,28.04
2016-04-27T11:29:15.587Z,28.27
2016-04-27T11:30:15.590Z,27.54
2016-04-27T11:31:15.593Z,28.78
2016-04-27T11:32:15.580Z,30.23
2016-04-27T11:33:15.583Z,29.44
2016-04-27T11:34:15.569Z,28.75
2016-04-27T11:35:15.557Z,29.84
2016-04-27T11:36:15.575Z,30.85
2016-04-27T11:37:15.578Z,31.07
2016-04-27T11:38:15.425Z,28.82
2016-04-27T11:39:15.568Z,28.84
2016-04-27T11:40:15.585Z,31.49
2016-04-27T11:41:15.557Z,32.07
2016-04-27T11:42:15.544Z,30.32
2016-04-27T11:43:15.579Z,30.75
2016-04-27T11:44:15.549Z,29.98
2016-04-27T11:45:15.552Z,32.34
2016-04-27T11:46:15.554Z,30.48
2016-04-27T11:47:15.557Z,28.81
2016-04-27T11:48:15.545Z,29.44
2016-04-27T11:49:15.575Z,30.32
2016-04-27T11:50:15.623Z,26.44
2016-04-27T11:51:15.654Z,25.65
2016-04-27T11:52:15.718Z,26.75
2016-04-27T11:53:15.499Z,25.14
2016-04-27T11:54:15.780Z,28.57
2016-04-27T11:55:15.799Z,27.21
2016-04-27T11:56:15.802Z,29.49
2016-04-27T11:57:15.820Z,27.37
2016-04-27T11:58:15.839Z,26.66
2016-04-27T11:59:15.836Z,27.32
2016-04-27T12:00:15.845Z,27.2
2016-04-27T12:01:15.853Z,28.64
2016-04-27T12:02:15.845Z,29.54
2016-04-27T12:03:15.854Z,32.16
2016-04-27T12:04:15.861Z,33.99
2016-04-27T12:05:15.866Z,34.39
2016-04-27T12:06:15.871Z,33.61
2016-04-27T12:07:15.875Z,33.49
2016-04-27T12:08:15.661Z,31.21
2016-04-27T12:09:17.962Z,26.73
2016-04-27T12:10:15.857Z,28.11
2016-04-27T12:11:15.877Z,26.56
2016-04-27T12:12:15.864Z,29.63
2016-04-27T12:13:15.851Z,27.03
2016-04-27T12:14:16.668Z,26.78
2016-04-27T12:15:15.858Z,28.85
2016-04-27T12:16:15.893Z,29.27
2016-04-27T12:17:15.880Z,28.88
2016-04-27T12:18:15.883Z,28.94
2016-04-27T12:19:15.885Z,27.42
2016-04-27T12:20:15.858Z,29.47
2016-04-27T12:21:15.875Z,31.42
2016-04-27T12:22:15.893Z,33.64
2016-04-27T12:23:16.818Z,31.33
2016-04-27T12:24:15.900Z,29.26
2016-04-27T12:25:15.871Z,30.66
2016-04-27T12:26:15.889Z,28.41
2016-04-27T12:27:15.891Z,30.46
2016-04-27T12:28:15.879Z,32.82
2016-04-27T12:29:15.881Z,33.19
2016-04-27T12:30:15.899Z,33.22
2016-04-27T12:31:16.184Z,29.87
2016-04-27T12:32:15.890Z,28.01
2016-04-27T12:33:15.876Z,29.54
2016-04-27T12:34:15.895Z,30.13
2016-04-27T12:35:15.913Z,30.81
2016-04-27T12:36:15.931Z,31.06
2016-04-27T12:37:15.903Z,27.95
2016-04-27T12:38:18.687Z,25.96
2016-04-27T12:39:15.909Z,25.98
2016-04-27T12:40:15.896Z,24.33
2016-04-27T12:41:15.898Z,26.22
2016-04-27T12:42:15.885Z,26.16
2016-04-27T12:43:15.887Z,26.28
2016-04-27T12:44:15.890Z,25.13
2016-04-27T12:45:15.878Z,25.21
2016-04-27T12:46:15.911Z,22.38
2016-04-27T12:47:15.883Z,23.1
2016-04-27T12:48:15.886Z,24.95
2016-04-27T12:49:15.888Z,25.44
2016-04-27T12:50:15.906Z,26.78
2016-04-27T12:51:15.909Z,28.7
2016-04-27T12:52:15.880Z,28.19
2016-04-27T12:53:15.868Z,27.7
2016-04-27T12:54:15.871Z,29.31
2016-04-27T12:55:15.919Z,29.07